1873 NOT_NAMED (1873001S17058)


IBTrACS version v04r00. Visit IBTrACS website for data access.
Please direct all questions to the IBTrACS Q and A forum

Storm track - Intensity - Wind Radii - Intensity Data - Source Data - All data

Summary Information

Storm ID 1873001S17058
Start Jan 1 06Z
End Jan 7 06Z
ATCF IDs
Track status Best track data.
Spur track This storm is a spur track associated with the main storm: 1873001S16058

Storm track plot

Map of storm track

Intensity plots

No Intensity information for this storm


Radial wind information

No radial wind information for this storm


Position and Intensity Table

BASIN ISO_TIME_________ NATURE LAT LON
degrees north degrees east
SI 1873-01-01 06:00:00 NR -16.70 57.50
SI 09:00:00 NR -17.05 57.16
SI 12:00:00 NR -17.38 56.82
SI 15:00:00 NR -17.70 56.50
SI 18:00:00 NR -18.00 56.20
SI 21:00:00 NR -18.27 55.92
SI 1873-01-02 00:00:00 NR -18.53 55.66
SI 03:00:00 NR -18.80 55.39
SI 06:00:00 NR -19.10 55.10
SI 09:00:00 NR -19.46 54.76
SI 12:00:00 NR -19.86 54.41
SI 15:00:00 NR -20.28 54.05
SI 18:00:00 NR -20.70 53.70
SI 21:00:00 NR -21.14 53.36
SI 1873-01-03 00:00:00 NR -21.57 53.03
SI 03:00:00 NR -21.96 52.74
SI 06:00:00 NR -22.30 52.50
SI 09:00:00 NR -22.54 52.32
SI 12:00:00 NR -22.72 52.19
SI 15:00:00 NR -22.86 52.09
SI 18:00:00 NR -23.00 52.00
SI 21:00:00 NR -23.16 51.90
SI 1873-01-04 00:00:00 NR -23.32 51.81
SI 03:00:00 NR -23.50 51.71
SI 06:00:00 NR -23.70 51.60
SI 09:00:00 NR -23.96 51.46
SI 12:00:00 NR -24.25 51.31
SI 15:00:00 NR -24.54 51.15
SI 18:00:00 NR -24.80 51.00
SI 21:00:00 NR -24.97 50.88
SI 1873-01-05 00:00:00 NR -25.12 50.77
SI 03:00:00 NR -25.28 50.65
SI 06:00:00 NR -25.50 50.50
SI 09:00:00 NR -25.82 50.30
SI 12:00:00 NR -26.20 50.08
SI 15:00:00 NR -26.60 49.84
SI 18:00:00 NR -27.00 49.60
SI 21:00:00 NR -27.31 49.39
SI 1873-01-06 00:00:00 NR -27.62 49.18
SI 03:00:00 NR -27.97 48.95
SI 06:00:00 NR -28.40 48.70
SI 09:00:00 NR -28.98 48.41
SI 12:00:00 NR -29.63 48.09
SI 15:00:00 NR -30.32 47.75
SI 18:00:00 NR -31.00 47.40
SI 21:00:00 NR -31.63 47.05
SI 1873-01-07 00:00:00 NR -32.21 46.70
SI 03:00:00 NR -32.76 46.35
SI 06:00:00 NR -33.30 46.00

Source Information

Agency Information
USA
TOKYO
CMA
HKO
NEWDELHI
REUNION
BOM
NADI
WELLINGTON
DS824
TD9636 cons_worldwide_trop_cyclone_18710101-19891231-005:Line=1309
TD9635
NEUMANN
MLC

All available IBTrACS Data

SEASON BASIN SUBBASIN ISO_TIME_________ NATURE LAT LON DIST2LAND LANDFALL IFLAG USA SSHS TD9636 LAT TD9636 LON TD9636 STAGE STORM SPEED STORM DIR
Year degrees north degrees east km km 1 degrees north degrees east kts degrees
1873 SI MM 1873-01-01 06:00:00 NR -16.70 57.50 380 347 __________O___ -1 -16.70 57.50 7 10 223
1873 SI MM 09:00:00 NR -17.05 57.16 348 310 __________P___ -1 -17.05 57.16 7 9 223
1873 SI MM 12:00:00 NR -17.38 56.82 310 284 __________P___ -1 -17.38 56.82 7 9 224
1873 SI MM 15:00:00 NR -17.70 56.50 288 271 __________P___ -1 -17.70 56.50 7 9 224
1873 SI MM 18:00:00 NR -18.00 56.20 271 262 __________O___ -1 -18.00 56.20 7 8 224
1873 SI MM 21:00:00 NR -18.27 55.92 262 260 __________P___ -1 -18.27 55.92 7 7 224
1873 SI MM 1873-01-02 00:00:00 NR -18.53 55.66 260 246 __________P___ -1 -18.53 55.66 7 7 224
1873 SI MM 03:00:00 NR -18.80 55.39 246 213 __________P___ -1 -18.80 55.39 7 8 223
1873 SI MM 06:00:00 NR -19.10 55.10 213 183 __________O___ -1 -19.10 55.10 7 9 221
1873 SI MM 09:00:00 NR -19.46 54.76 175 157 __________P___ -1 -19.46 54.76 7 10 221
1873 SI MM 12:00:00 NR -19.86 54.41 154 145 __________P___ -1 -19.86 54.41 7 11 220
1873 SI MM 15:00:00 NR -20.28 54.05 153 147 __________P___ -1 -20.28 54.05 7 11 218
1873 SI MM 18:00:00 NR -20.70 53.70 162 162 __________O___ -1 -20.70 53.70 7 11 217
1873 SI MM 21:00:00 NR -21.14 53.36 186 186 __________P___ -1 -21.14 53.36 7 11 216
1873 SI MM 1873-01-03 00:00:00 NR -21.57 53.03 234 234 __________P___ -1 -21.57 53.03 7 10 215
1873 SI MM 03:00:00 NR -21.96 52.74 277 277 __________P___ -1 -21.96 52.74 7 9 214
1873 SI MM 06:00:00 NR -22.30 52.50 309 309 __________O___ -1 -22.30 52.50 7 7 214
1873 SI MM 09:00:00 NR -22.54 52.32 337 337 __________P___ -1 -22.54 52.32 7 5 215
1873 SI MM 12:00:00 NR -22.72 52.19 355 355 __________P___ -1 -22.72 52.19 7 4 213
1873 SI MM 15:00:00 NR -22.86 52.09 374 374 __________P___ -1 -22.86 52.09 7 3 211
1873 SI MM 18:00:00 NR -23.00 52.00 389 389 __________O___ -1 -23.00 52.00 7 3 210
1873 SI MM 21:00:00 NR -23.16 51.90 409 401 __________P___ -1 -23.16 51.90 7 4 209
1873 SI MM 1873-01-04 00:00:00 NR -23.32 51.81 405 400 __________P___ -1 -23.32 51.81 7 4 208
1873 SI MM 03:00:00 NR -23.50 51.71 404 395 __________P___ -1 -23.50 51.71 7 4 206
1873 SI MM 06:00:00 NR -23.70 51.60 398 389 __________O___ -1 -23.70 51.60 7 5 206
1873 SI MM 09:00:00 NR -23.96 51.46 392 376 __________P___ -1 -23.96 51.46 7 6 206
1873 SI MM 12:00:00 NR -24.25 51.31 379 372 __________P___ -1 -24.25 51.31 7 6 206
1873 SI MM 15:00:00 NR -24.54 51.15 376 362 __________P___ -1 -24.54 51.15 7 6 207
1873 SI MM 18:00:00 NR -24.80 51.00 365 358 __________O___ -1 -24.80 51.00 7 5 209
1873 SI MM 21:00:00 NR -24.97 50.88 361 351 __________P___ -1 -24.97 50.88 7 4 213
1873 SI MM 1873-01-05 00:00:00 NR -25.12 50.77 355 350 __________P___ -1 -25.12 50.77 7 4 214
1873 SI MM 03:00:00 NR -25.28 50.65 344 337 __________P___ -1 -25.28 50.65 7 5 213
1873 SI MM 06:00:00 NR -25.50 50.50 341 333 __________O___ -1 -25.50 50.50 7 6 210
1873 SI MM 09:00:00 NR -25.82 50.30 333 324 __________P___ -1 -25.82 50.30 7 8 208
1873 SI MM 12:00:00 NR -26.20 50.08 329 320 __________P___ -1 -26.20 50.08 7 9 208
1873 SI MM 15:00:00 NR -26.60 49.84 323 323 __________P___ -1 -26.60 49.84 7 9 208
1873 SI MM 18:00:00 NR -27.00 49.60 334 334 __________O___ -1 -27.00 49.60 7 8 210
1873 SI MM 21:00:00 NR -27.31 49.39 342 342 __________P___ -1 -27.31 49.39 7 7 211
1873 SI MM 1873-01-06 00:00:00 NR -27.62 49.18 354 354 __________P___ -1 -27.62 49.18 7 8 210
1873 SI MM 03:00:00 NR -27.97 48.95 380 374 __________P___ -1 -27.97 48.95 7 9 208
1873 SI MM 06:00:00 NR -28.40 48.70 403 403 __________O___ -1 -28.40 48.70 7 11 205
1873 SI MM 09:00:00 NR -28.98 48.41 452 452 __________P___ -1 -28.98 48.41 7 13 203
1873 SI MM 12:00:00 NR -29.63 48.09 507 507 __________P___ -1 -29.63 48.09 7 15 203
1873 SI MM 15:00:00 NR -30.32 47.75 567 567 __________P___ -1 -30.32 47.75 7 15 203
1873 SI MM 18:00:00 NR -31.00 47.40 630 630 __________O___ -1 -31.00 47.40 7 14 205
1873 SI MM 21:00:00 NR -31.63 47.05 687 687 __________P___ -1 -31.63 47.05 7 14 206
1873 SI MM 1873-01-07 00:00:00 NR -32.21 46.70 745 745 __________P___ -1 -32.21 46.70 7 13 207
1873 SI MM 03:00:00 NR -32.76 46.35 808 807 __________P___ -1 -32.76 46.35 7 12 208
1873 SI MM 06:00:00 NR -33.30 46.00 860 __________O___ -1 -33.30 46.00 7 12 209